createdAt,value
2018-05-08T00:00:40.221Z,17.26
2018-05-08T00:01:39.865Z,17.25
2018-05-08T00:02:39.859Z,17.14
2018-05-08T00:03:39.847Z,17.12
2018-05-08T00:04:39.842Z,17.21
2018-05-08T00:05:39.833Z,17.15
2018-05-08T00:06:39.847Z,17.22
2018-05-08T00:07:39.824Z,17.16
2018-05-08T00:08:39.837Z,17.08
2018-05-08T00:09:39.830Z,17.06
2018-05-08T00:10:39.820Z,17.03
2018-05-08T00:11:39.774Z,17.01
2018-05-08T00:12:39.772Z,17.04
2018-05-08T00:13:39.764Z,17.06
2018-05-08T00:14:39.769Z,17.03
2018-05-08T00:15:39.737Z,17.03
2018-05-08T00:16:39.746Z,17.04
2018-05-08T00:17:40.124Z,16.97
2018-05-08T00:18:39.711Z,17.00
2018-05-08T00:19:39.717Z,17.03
2018-05-08T00:20:39.693Z,17.07
2018-05-08T00:21:39.702Z,16.98
2018-05-08T00:22:39.726Z,17.00
2018-05-08T00:23:39.683Z,16.97
2018-05-08T00:24:39.664Z,16.93
2018-05-08T00:25:39.723Z,16.83
2018-05-08T00:26:39.652Z,16.83
2018-05-08T00:27:39.652Z,16.86
2018-05-08T00:28:39.647Z,16.86
2018-05-08T00:29:39.638Z,16.85
2018-05-08T00:30:39.631Z,16.91
2018-05-08T00:31:39.637Z,16.91
2018-05-08T00:32:39.606Z,16.85
2018-05-08T00:33:39.589Z,16.75
2018-05-08T00:34:39.588Z,16.71
2018-05-08T00:35:39.580Z,16.73
2018-05-08T00:36:39.664Z,16.78
2018-05-08T00:37:39.566Z,16.71
2018-05-08T00:38:39.549Z,16.78
2018-05-08T00:39:39.539Z,16.67
2018-05-08T00:40:39.536Z,16.68
2018-05-08T00:41:39.524Z,16.60
2018-05-08T00:42:39.538Z,16.60
2018-05-08T00:43:39.523Z,16.61
2018-05-08T00:44:39.508Z,16.57
2018-05-08T00:45:39.498Z,16.39
2018-05-08T00:46:39.474Z,16.28
2018-05-08T00:47:39.513Z,16.35
2018-05-08T00:48:39.468Z,16.25
2018-05-08T00:49:39.458Z,16.21
2018-05-08T00:50:39.456Z,16.15
2018-05-08T00:51:39.446Z,16.09
2018-05-08T00:52:39.638Z,16.09
2018-05-08T00:53:39.431Z,16.08
2018-05-08T00:54:39.443Z,16.11
2018-05-08T00:55:39.409Z,16.08
2018-05-08T00:56:39.395Z,16.01
2018-05-08T00:57:39.431Z,16.00
2018-05-08T00:58:39.385Z,16.02
2018-05-08T00:59:39.370Z,16.00
2018-05-08T01:00:39.362Z,15.90
2018-05-08T01:01:39.381Z,15.90
2018-05-08T01:02:39.348Z,15.89
2018-05-08T01:03:39.340Z,15.89
2018-05-08T01:04:39.384Z,15.92
2018-05-08T01:05:39.307Z,15.96
2018-05-08T01:06:39.301Z,16.01
2018-05-08T01:07:39.295Z,15.96
2018-05-08T01:08:39.298Z,15.92
2018-05-08T01:09:39.288Z,16.00
2018-05-08T01:10:39.302Z,15.96
2018-05-08T01:11:39.318Z,16.00
2018-05-08T01:12:39.265Z,15.97
2018-05-08T01:13:39.245Z,15.97
2018-05-08T01:14:39.234Z,16.01
2018-05-08T01:15:39.275Z,16.07
2018-05-08T01:16:39.229Z,16.02
2018-05-08T01:17:39.255Z,16.07
2018-05-08T01:18:39.203Z,16.05
2018-05-08T01:19:39.196Z,16.04
2018-05-08T01:20:39.194Z,16.08
2018-05-08T01:21:39.224Z,16.02
2018-05-08T01:22:39.161Z,16.09
2018-05-08T01:23:39.163Z,16.12
2018-05-08T01:24:39.147Z,16.17
2018-05-08T01:25:39.169Z,16.24
2018-05-08T01:26:39.128Z,16.23
2018-05-08T01:27:39.183Z,16.33
2018-05-08T01:28:39.126Z,16.31
2018-05-08T01:29:39.117Z,16.34
2018-05-08T01:30:39.088Z,16.33
2018-05-08T01:31:39.236Z,16.31
2018-05-08T01:32:39.073Z,16.30
2018-05-08T01:33:39.082Z,16.33
2018-05-08T01:34:39.054Z,16.33
2018-05-08T01:35:39.058Z,16.38
2018-05-08T01:36:39.046Z,16.38
2018-05-08T01:37:39.067Z,16.45
2018-05-08T01:38:39.016Z,16.50
2018-05-08T01:39:39.043Z,16.41
2018-05-08T01:40:38.996Z,16.50
2018-05-08T01:41:38.993Z,16.43
2018-05-08T01:42:38.992Z,16.49
2018-05-08T01:43:39.170Z,16.58
2018-05-08T01:44:38.974Z,16.60
2018-05-08T01:45:38.963Z,16.58
2018-05-08T01:46:38.951Z,16.60
2018-05-08T01:47:38.961Z,16.58
2018-05-08T01:48:38.938Z,16.64
2018-05-08T01:49:38.950Z,16.66
2018-05-08T01:50:38.925Z,16.68
2018-05-08T01:51:38.901Z,16.68
2018-05-08T01:52:38.897Z,16.75
2018-05-08T01:53:39.054Z,16.78
2018-05-08T01:54:38.893Z,16.75
2018-05-08T01:55:38.860Z,16.81
2018-05-08T01:56:38.860Z,16.79
2018-05-08T01:57:38.849Z,16.75
2018-05-08T01:58:38.834Z,16.71
2018-05-08T01:59:38.870Z,16.76
2018-05-08T02:00:38.838Z,16.76
2018-05-08T02:01:38.819Z,16.78
2018-05-08T02:02:38.818Z,16.82
2018-05-08T02:03:38.808Z,16.75
2018-05-08T02:04:38.969Z,16.78
2018-05-08T02:05:38.782Z,16.79
2018-05-08T02:06:38.777Z,16.73
2018-05-08T02:07:38.767Z,16.79
2018-05-08T02:08:38.751Z,16.82
2018-05-08T02:09:38.747Z,16.78
2018-05-08T02:10:38.751Z,16.83
2018-05-08T02:11:38.727Z,16.79
2018-05-08T02:12:38.731Z,16.78
2018-05-08T02:13:38.703Z,16.81
2018-05-08T02:14:38.708Z,16.83
2018-05-08T02:15:38.688Z,16.85
2018-05-08T02:16:38.691Z,16.78
2018-05-08T02:17:38.674Z,16.83
2018-05-08T02:18:38.660Z,16.83
2018-05-08T02:19:38.658Z,16.83
2018-05-08T02:20:38.723Z,16.79
2018-05-08T02:21:38.632Z,16.76
2018-05-08T02:22:38.640Z,16.78
2018-05-08T02:23:38.617Z,16.76
2018-05-08T02:24:38.607Z,16.78
2018-05-08T02:25:38.609Z,16.79
2018-05-08T02:26:38.664Z,16.75
2018-05-08T02:27:38.597Z,16.79
2018-05-08T02:28:38.575Z,16.75
2018-05-08T02:29:38.578Z,16.76
2018-05-08T02:30:38.570Z,16.71
2018-05-08T02:31:38.553Z,16.73
2018-05-08T02:32:38.561Z,16.52
2018-05-08T02:33:38.544Z,16.52
2018-05-08T02:34:38.523Z,16.45
2018-05-08T02:35:38.513Z,16.42
2018-05-08T02:36:38.516Z,16.41
2018-05-08T02:37:38.666Z,16.42
2018-05-08T02:38:38.493Z,16.41
2018-05-08T02:39:38.483Z,16.42
2018-05-08T02:40:38.461Z,16.38
2018-05-08T02:41:38.464Z,16.28
2018-05-08T02:42:38.459Z,16.33
2018-05-08T02:43:38.496Z,16.38
2018-05-08T02:44:38.447Z,16.20
2018-05-08T02:45:38.418Z,16.17
2018-05-08T02:46:38.460Z,16.25
2018-05-08T02:47:38.439Z,16.31
2018-05-08T02:48:38.402Z,16.31
2018-05-08T02:49:38.393Z,16.38
2018-05-08T02:50:38.379Z,16.31
2018-05-08T02:51:38.381Z,16.31
2018-05-08T02:52:38.467Z,16.33
2018-05-08T02:53:38.355Z,16.31
2018-05-08T02:54:38.343Z,16.33
2018-05-08T02:55:38.337Z,16.30
2018-05-08T02:56:38.332Z,16.28
2018-05-08T02:57:38.357Z,16.38
2018-05-08T02:58:38.313Z,16.24
2018-05-08T02:59:38.328Z,16.31
2018-05-08T03:00:38.327Z,16.31
2018-05-08T03:01:38.280Z,16.21
2018-05-08T03:02:38.281Z,16.30
2018-05-08T03:03:38.281Z,16.27
2018-05-08T03:04:38.258Z,16.24
2018-05-08T03:05:38.284Z,16.24
2018-05-08T03:06:38.231Z,16.17
2018-05-08T03:07:38.229Z,16.24
2018-05-08T03:08:38.290Z,16.15
2018-05-08T03:09:38.248Z,16.28
2018-05-08T03:10:38.211Z,16.24
2018-05-08T03:11:38.185Z,16.23
2018-05-08T03:12:38.192Z,16.17
2018-05-08T03:13:38.168Z,16.25
2018-05-08T03:14:38.183Z,16.24
2018-05-08T03:15:38.162Z,16.24
2018-05-08T03:16:38.190Z,16.27
2018-05-08T03:17:38.140Z,16.30
2018-05-08T03:18:38.122Z,16.27
2018-05-08T03:19:38.127Z,16.33
2018-05-08T03:20:38.765Z,16.27
2018-05-08T03:21:38.122Z,16.33
2018-05-08T03:22:38.096Z,16.23
2018-05-08T03:23:38.089Z,16.38
2018-05-08T03:24:38.146Z,16.25
2018-05-08T03:25:38.074Z,16.20
2018-05-08T03:26:38.051Z,16.27
2018-05-08T03:27:38.047Z,16.28
2018-05-08T03:28:38.047Z,16.28
2018-05-08T03:29:38.024Z,16.25
2018-05-08T03:30:38.069Z,16.21
2018-05-08T03:31:38.017Z,16.20
2018-05-08T03:32:38.015Z,16.14
2018-05-08T03:33:37.996Z,16.14
2018-05-08T03:34:38.033Z,16.15
2018-05-08T03:35:38.002Z,16.12
2018-05-08T03:36:37.963Z,16.14
2018-05-08T03:37:37.962Z,16.12
2018-05-08T03:38:37.951Z,16.17
2018-05-08T03:39:37.932Z,16.14
2018-05-08T03:40:37.974Z,16.14
2018-05-08T03:41:37.924Z,16.12
2018-05-08T03:42:37.901Z,16.14
2018-05-08T03:43:37.898Z,16.12
2018-05-08T03:44:37.908Z,16.14
2018-05-08T03:45:38.028Z,16.08
2018-05-08T03:46:37.969Z,16.14
2018-05-08T03:47:37.859Z,16.14
2018-05-08T03:48:37.852Z,16.12
2018-05-08T03:49:37.849Z,16.02
2018-05-08T03:50:37.852Z,16.09
2018-05-08T03:51:37.837Z,16.11
2018-05-08T03:52:37.809Z,16.12
2018-05-08T03:53:37.817Z,16.11
2018-05-08T03:54:37.794Z,16.12
2018-05-08T03:55:37.791Z,16.09
2018-05-08T03:56:37.810Z,16.02
2018-05-08T03:57:37.774Z,16.05
2018-05-08T03:58:37.774Z,16.01
2018-05-08T03:59:37.756Z,15.96
2018-05-08T04:00:37.891Z,16.02
2018-05-08T04:01:37.723Z,15.89
2018-05-08T04:02:37.722Z,15.94
2018-05-08T04:03:37.720Z,15.94
2018-05-08T04:04:37.718Z,16.01
2018-05-08T04:05:37.711Z,16.05
2018-05-08T04:06:37.698Z,16.09
2018-05-08T04:07:37.671Z,16.11
2018-05-08T04:08:37.668Z,16.15
2018-05-08T04:09:37.663Z,16.14
2018-05-08T04:10:37.644Z,16.12
2018-05-08T04:11:37.717Z,16.14
2018-05-08T04:12:38.168Z,16.17
2018-05-08T04:13:37.620Z,16.15
2018-05-08T04:14:37.630Z,16.12
2018-05-08T04:15:37.603Z,16.14
2018-05-08T04:16:39.732Z,16.14
2018-05-08T04:17:37.637Z,16.12
2018-05-08T04:18:37.571Z,16.09
2018-05-08T04:19:37.570Z,16.15
2018-05-08T04:20:37.658Z,16.15
2018-05-08T04:21:37.573Z,16.12
2018-05-08T04:22:37.570Z,16.14
2018-05-08T04:23:37.551Z,16.09
2018-05-08T04:24:37.517Z,16.12
2018-05-08T04:25:37.508Z,16.11
2018-05-08T04:26:37.508Z,16.11
2018-05-08T04:27:37.527Z,16.12
2018-05-08T04:28:37.645Z,16.09
2018-05-08T04:29:37.467Z,16.09
2018-05-08T04:30:37.480Z,16.08
2018-05-08T04:31:37.446Z,16.12
2018-05-08T04:32:42.521Z,16.09
2018-05-08T04:33:37.445Z,16.08
2018-05-08T04:34:37.464Z,15.96
2018-05-08T04:35:38.180Z,16.00
2018-05-08T04:36:37.410Z,16.00
2018-05-08T04:37:37.407Z,15.97
2018-05-08T04:38:37.388Z,16.07
2018-05-08T04:39:37.421Z,16.07
2018-05-08T04:40:37.377Z,16.01
2018-05-08T04:41:37.355Z,16.02
2018-05-08T04:42:37.350Z,16.04
2018-05-08T04:43:37.397Z,16.12
2018-05-08T04:44:37.515Z,16.09
2018-05-08T04:45:37.326Z,16.07
2018-05-08T04:46:37.500Z,16.14
2018-05-08T04:47:37.359Z,16.15
2018-05-08T04:48:37.303Z,16.12
2018-05-08T04:49:37.659Z,16.14
2018-05-08T04:50:37.322Z,16.20
2018-05-08T04:51:37.270Z,16.15
2018-05-08T04:52:37.270Z,16.24
2018-05-08T04:53:37.258Z,16.27
2018-05-08T04:54:37.256Z,16.28
2018-05-08T04:55:37.271Z,16.31
2018-05-08T04:56:37.238Z,16.31
2018-05-08T04:57:37.226Z,16.28
2018-05-08T04:58:37.207Z,16.24
2018-05-08T04:59:37.205Z,16.34
2018-05-08T05:00:37.562Z,16.33
2018-05-08T05:01:37.176Z,16.33
2018-05-08T05:02:37.234Z,16.42
2018-05-08T05:03:37.161Z,16.34
2018-05-08T05:04:37.158Z,16.31
2018-05-08T05:05:37.153Z,16.31
2018-05-08T05:06:37.143Z,16.39
2018-05-08T05:07:37.133Z,16.45
2018-05-08T05:08:37.124Z,16.43
2018-05-08T05:09:37.113Z,16.42
2018-05-08T05:10:37.104Z,16.49
2018-05-08T05:11:37.244Z,16.46
2018-05-08T05:12:37.086Z,16.49
2018-05-08T05:13:37.062Z,16.50
2018-05-08T05:14:37.064Z,16.50
2018-05-08T05:15:37.209Z,16.52
2018-05-08T05:16:37.138Z,16.58
2018-05-08T05:17:37.080Z,16.56
2018-05-08T05:18:37.033Z,16.56
2018-05-08T05:19:37.024Z,16.73
2018-05-08T05:20:37.040Z,16.64
2018-05-08T05:21:37.022Z,16.70
2018-05-08T05:22:37.047Z,16.63
2018-05-08T05:23:36.989Z,16.66
2018-05-08T05:24:36.978Z,16.67
2018-05-08T05:25:36.998Z,16.66
2018-05-08T05:26:36.958Z,16.66
2018-05-08T05:27:36.953Z,16.66
2018-05-08T05:28:36.954Z,16.57
2018-05-08T05:29:36.931Z,16.61
2018-05-08T05:30:36.926Z,16.64
2018-05-08T05:31:36.942Z,16.70
2018-05-08T05:32:37.245Z,16.66
2018-05-08T05:33:36.906Z,16.81
2018-05-08T05:34:36.913Z,16.79
2018-05-08T05:35:36.879Z,16.91
2018-05-08T05:36:36.879Z,16.89
2018-05-08T05:37:36.884Z,16.93
2018-05-08T05:38:36.918Z,16.96
2018-05-08T05:39:37.267Z,16.93
2018-05-08T05:40:36.929Z,16.97
2018-05-08T05:41:36.823Z,17.07
2018-05-08T05:42:36.874Z,17.01
2018-05-08T05:43:36.873Z,17.11
2018-05-08T05:44:36.802Z,17.12
2018-05-08T05:45:36.810Z,17.23
2018-05-08T05:46:36.816Z,17.16
2018-05-08T05:47:36.951Z,17.23
2018-05-08T05:48:36.769Z,17.33
2018-05-08T05:49:36.764Z,17.22
2018-05-08T05:50:37.196Z,17.34
2018-05-08T05:51:36.737Z,17.40
2018-05-08T05:52:36.728Z,17.43
2018-05-08T05:53:36.721Z,17.46
2018-05-08T05:54:36.718Z,17.43
2018-05-08T05:55:36.705Z,17.31
2018-05-08T05:56:36.773Z,17.49
2018-05-08T05:57:36.696Z,17.49
2018-05-08T05:58:36.690Z,17.56
2018-05-08T05:59:37.207Z,17.49
2018-05-08T06:00:36.666Z,17.51
2018-05-08T06:01:36.667Z,17.62
2018-05-08T06:02:36.681Z,17.66
2018-05-08T06:03:36.649Z,17.64
2018-05-08T06:04:36.650Z,17.71
2018-05-08T06:05:36.628Z,17.72
2018-05-08T06:06:36.622Z,17.77
2018-05-08T06:07:36.634Z,17.87
2018-05-08T06:08:36.610Z,17.77
2018-05-08T06:09:36.598Z,17.81
2018-05-08T06:10:36.603Z,17.87
2018-05-08T06:11:36.605Z,17.90
2018-05-08T06:12:36.677Z,17.95
2018-05-08T06:13:36.590Z,18.00
2018-05-08T06:14:36.557Z,17.97
2018-05-08T06:15:36.555Z,18.08
2018-05-08T06:16:36.540Z,18.11
2018-05-08T06:17:36.527Z,18.15
2018-05-08T06:18:36.760Z,18.18
2018-05-08T06:19:36.511Z,18.18
2018-05-08T06:20:36.509Z,18.23
2018-05-08T06:21:36.509Z,18.18
2018-05-08T06:22:36.501Z,18.29
2018-05-08T06:23:36.488Z,18.35
2018-05-08T06:24:36.490Z,18.23
2018-05-08T06:25:36.476Z,18.39
2018-05-08T06:26:36.500Z,18.37
2018-05-08T06:27:36.545Z,18.33
2018-05-08T06:28:36.544Z,18.39
2018-05-08T06:29:36.770Z,18.39
2018-05-08T06:30:36.437Z,18.44
2018-05-08T06:31:36.427Z,18.47
2018-05-08T06:32:36.416Z,18.50
2018-05-08T06:33:36.419Z,18.47
2018-05-08T06:34:36.393Z,18.57
2018-05-08T06:35:36.431Z,18.62
2018-05-08T06:36:36.412Z,18.63
2018-05-08T06:37:36.378Z,18.65
2018-05-08T06:38:36.369Z,18.75
2018-05-08T06:39:36.481Z,18.73
2018-05-08T06:40:36.364Z,18.70
2018-05-08T06:41:36.385Z,18.80
2018-05-08T06:42:36.338Z,18.73
2018-05-08T06:43:36.344Z,18.70
2018-05-08T06:44:37.229Z,18.82
2018-05-08T06:45:36.318Z,18.78
2018-05-08T06:46:36.433Z,18.85
2018-05-08T06:47:36.307Z,18.81
2018-05-08T06:48:36.287Z,18.90
2018-05-08T06:49:36.299Z,18.85
2018-05-08T06:50:36.275Z,18.76
2018-05-08T06:51:36.278Z,18.73
2018-05-08T06:52:36.293Z,18.87
2018-05-08T06:53:36.265Z,18.88
2018-05-08T06:54:36.741Z,18.84
2018-05-08T06:55:36.244Z,18.92
2018-05-08T06:56:36.490Z,18.88
2018-05-08T06:57:36.226Z,18.85
2018-05-08T06:58:36.229Z,18.82
2018-05-08T06:59:36.226Z,18.88
2018-05-08T07:00:36.211Z,18.92
2018-05-08T07:01:36.217Z,18.91
2018-05-08T07:02:36.288Z,18.90
2018-05-08T07:03:36.183Z,18.91
2018-05-08T07:04:36.266Z,19.06
2018-05-08T07:05:36.175Z,19.06
2018-05-08T07:06:36.169Z,19.18
2018-05-08T07:07:36.161Z,19.10
2018-05-08T07:08:36.150Z,19.14
2018-05-08T07:09:36.283Z,19.19
2018-05-08T07:10:36.141Z,19.26
2018-05-08T07:11:36.734Z,19.14
2018-05-08T07:12:36.144Z,19.11
2018-05-08T07:13:36.130Z,19.16
2018-05-08T07:14:36.162Z,19.22
2018-05-08T07:15:36.125Z,19.23
2018-05-08T07:16:36.106Z,19.31
2018-05-08T07:17:36.091Z,19.23
2018-05-08T07:18:36.080Z,19.22
2018-05-08T07:19:36.108Z,19.26
2018-05-08T07:20:36.079Z,19.29
2018-05-08T07:21:36.074Z,19.26
2018-05-08T07:22:36.067Z,19.39
2018-05-08T07:23:36.072Z,19.44
2018-05-08T07:24:36.065Z,19.40
2018-05-08T07:25:36.034Z,19.41
2018-05-08T07:26:36.070Z,19.48
2018-05-08T07:27:36.072Z,19.46
2018-05-08T07:28:36.137Z,19.43
2018-05-08T07:29:36.017Z,19.59
2018-05-08T07:30:36.013Z,19.47
2018-05-08T07:31:35.999Z,19.44
2018-05-08T07:32:36.109Z,19.33
2018-05-08T07:33:35.994Z,19.47
2018-05-08T07:34:35.974Z,19.50
2018-05-08T07:35:35.971Z,19.46
2018-05-08T07:36:36.109Z,19.56
2018-05-08T07:37:35.964Z,19.61
2018-05-08T07:38:35.947Z,19.63
2018-05-08T07:39:35.962Z,19.61
2018-05-08T07:40:36.152Z,19.74
2018-05-08T07:41:35.954Z,19.69
2018-05-08T07:42:35.956Z,19.68
2018-05-08T07:43:35.914Z,19.74
2018-05-08T07:44:35.923Z,19.74
2018-05-08T07:45:35.914Z,19.80
2018-05-08T07:46:35.901Z,19.80
2018-05-08T07:47:36.279Z,19.78
2018-05-08T07:48:35.891Z,19.81
2018-05-08T07:49:35.878Z,19.88
2018-05-08T07:50:35.883Z,19.94
2018-05-08T07:51:35.877Z,19.94
2018-05-08T07:52:35.872Z,19.96
2018-05-08T07:53:35.871Z,19.94
2018-05-08T07:54:35.877Z,20.02
2018-05-08T07:55:35.854Z,20.10
2018-05-08T07:56:35.846Z,20.01
2018-05-08T07:57:35.878Z,19.99
2018-05-08T07:58:35.861Z,20.02
2018-05-08T07:59:35.852Z,20.06
2018-05-08T08:00:35.829Z,20.10
2018-05-08T08:01:35.809Z,20.03
2018-05-08T08:02:35.851Z,20.08
2018-05-08T08:03:35.800Z,20.17
2018-05-08T08:04:35.782Z,20.24
2018-05-08T08:05:35.909Z,20.31
2018-05-08T08:06:35.782Z,20.24
2018-05-08T08:07:35.872Z,20.33
2018-05-08T08:08:35.766Z,20.39
2018-05-08T08:09:35.765Z,20.36
2018-05-08T08:10:35.898Z,20.48
2018-05-08T08:11:35.743Z,20.42
2018-05-08T08:12:35.736Z,20.50
2018-05-08T08:13:35.749Z,20.42
2018-05-08T08:14:35.735Z,20.51
2018-05-08T08:15:35.732Z,20.51
2018-05-08T08:16:35.748Z,20.61
2018-05-08T08:17:35.730Z,20.57
2018-05-08T08:18:35.759Z,20.69
2018-05-08T08:19:35.713Z,20.74
2018-05-08T08:20:35.725Z,20.76
2018-05-08T08:21:35.723Z,20.72
2018-05-08T08:22:35.688Z,20.76
2018-05-08T08:23:35.801Z,20.69
2018-05-08T08:24:35.682Z,20.69
2018-05-08T08:25:36.353Z,20.87
2018-05-08T08:26:35.669Z,20.84
2018-05-08T08:27:35.663Z,20.88
2018-05-08T08:28:35.649Z,20.91
2018-05-08T08:29:35.720Z,20.91
2018-05-08T08:30:35.634Z,20.94
2018-05-08T08:31:35.666Z,21.03
2018-05-08T08:32:35.661Z,20.97
2018-05-08T08:33:35.818Z,20.98
2018-05-08T08:34:35.737Z,21.01
2018-05-08T08:35:35.667Z,21.07
2018-05-08T08:36:36.282Z,21.17
2018-05-08T08:37:35.607Z,21.14
2018-05-08T08:38:35.641Z,21.25
2018-05-08T08:39:35.587Z,21.27
2018-05-08T08:40:35.595Z,21.29
2018-05-08T08:41:35.590Z,21.31
2018-05-08T08:42:35.595Z,21.31
2018-05-08T08:43:35.713Z,21.35
2018-05-08T08:44:35.594Z,21.38
2018-05-08T08:45:35.554Z,21.38
2018-05-08T08:46:35.599Z,21.53
2018-05-08T08:47:35.644Z,21.58
2018-05-08T08:48:35.558Z,21.67
2018-05-08T08:49:35.639Z,21.69
2018-05-08T08:50:35.541Z,21.77
2018-05-08T08:51:35.573Z,21.90
2018-05-08T08:52:35.531Z,21.91
2018-05-08T08:53:36.276Z,21.98
2018-05-08T08:54:35.522Z,21.91
2018-05-08T08:55:35.543Z,21.99
2018-05-08T08:56:35.512Z,22.05
2018-05-08T08:57:36.289Z,22.07
2018-05-08T08:58:35.514Z,22.18
2018-05-08T08:59:35.534Z,22.22
2018-05-08T09:00:35.514Z,22.27
2018-05-08T09:01:35.496Z,22.43
2018-05-08T09:02:35.496Z,22.46
2018-05-08T09:03:35.492Z,22.54
2018-05-08T09:04:35.552Z,22.61
2018-05-08T09:05:35.547Z,22.61
2018-05-08T09:06:35.479Z,22.64
2018-05-08T09:07:35.467Z,22.68
2018-05-08T09:08:35.525Z,22.68
2018-05-08T09:09:35.491Z,22.67
2018-05-08T09:10:36.026Z,22.70
2018-05-08T09:11:35.456Z,22.76
2018-05-08T09:12:35.473Z,22.85
2018-05-08T09:13:35.506Z,22.90
2018-05-08T09:14:35.451Z,23.04
2018-05-08T09:15:35.493Z,23.05
2018-05-08T09:16:35.471Z,23.17
2018-05-08T09:17:35.632Z,23.23
2018-05-08T09:18:35.451Z,23.32
2018-05-08T09:19:35.440Z,23.36
2018-05-08T09:20:35.444Z,23.54
2018-05-08T09:21:35.466Z,23.63
2018-05-08T09:22:35.455Z,23.75
2018-05-08T09:23:35.438Z,23.90
2018-05-08T09:24:35.423Z,23.93
2018-05-08T09:25:35.463Z,23.95
2018-05-08T09:26:35.439Z,23.94
2018-05-08T09:27:35.541Z,24.03
2018-05-08T09:28:35.427Z,24.10
2018-05-08T09:29:35.424Z,24.20
2018-05-08T09:30:35.456Z,24.28
2018-05-08T09:31:35.419Z,24.24
2018-05-08T09:32:35.419Z,24.32
2018-05-08T09:33:35.575Z,24.39
2018-05-08T09:34:35.416Z,24.49
2018-05-08T09:35:35.438Z,24.61
2018-05-08T09:36:35.430Z,24.64
2018-05-08T09:37:35.431Z,24.77
2018-05-08T09:38:35.434Z,24.78
2018-05-08T09:39:35.437Z,24.76
2018-05-08T09:40:35.435Z,24.83
2018-05-08T09:41:35.435Z,24.87
2018-05-08T09:42:35.424Z,24.93
2018-05-08T09:43:35.481Z,25.00
2018-05-08T09:44:35.433Z,25.09
2018-05-08T09:45:35.436Z,25.14
2018-05-08T09:46:35.436Z,25.09
2018-05-08T09:47:35.433Z,25.15
2018-05-08T09:48:35.467Z,25.14
2018-05-08T09:49:35.451Z,25.23
2018-05-08T09:50:35.442Z,25.28
2018-05-08T09:51:35.448Z,25.38
2018-05-08T09:52:35.498Z,25.43
2018-05-08T09:53:35.486Z,25.47
2018-05-08T09:54:35.487Z,25.50
2018-05-08T09:55:35.454Z,25.60
2018-05-08T09:56:35.459Z,25.76
2018-05-08T09:57:35.464Z,25.85
2018-05-08T09:58:35.465Z,25.90
2018-05-08T09:59:35.502Z,26.02
2018-05-08T10:00:35.464Z,26.10
2018-05-08T10:01:35.475Z,26.10
2018-05-08T10:02:35.498Z,26.12
2018-05-08T10:03:35.502Z,26.29
2018-05-08T10:04:35.520Z,26.29
2018-05-08T10:05:35.494Z,26.37
2018-05-08T10:06:35.495Z,26.43
2018-05-08T10:07:35.499Z,26.50
2018-05-08T10:08:35.506Z,26.55
2018-05-08T10:09:35.538Z,26.57
2018-05-08T10:10:35.529Z,26.63
2018-05-08T10:11:35.525Z,26.81
2018-05-08T10:12:35.533Z,26.89
2018-05-08T10:13:35.536Z,27.03
2018-05-08T10:14:35.918Z,27.19
2018-05-08T10:15:35.546Z,27.25
2018-05-08T10:16:35.552Z,27.37
2018-05-08T10:17:35.558Z,27.49
2018-05-08T10:18:35.571Z,27.60
2018-05-08T10:19:35.564Z,27.66
2018-05-08T10:20:35.704Z,27.79
2018-05-08T10:21:35.576Z,27.79
2018-05-08T10:22:35.596Z,27.88
2018-05-08T10:23:35.589Z,27.97
2018-05-08T10:24:35.596Z,28.21
2018-05-08T10:25:35.615Z,28.25
2018-05-08T10:26:35.621Z,28.31
2018-05-08T10:27:35.617Z,28.34
2018-05-08T10:28:35.639Z,28.43
2018-05-08T10:29:35.644Z,28.54
2018-05-08T10:30:35.648Z,28.56
2018-05-08T10:31:35.692Z,28.58
2018-05-08T10:32:35.659Z,28.66
2018-05-08T10:33:35.664Z,28.70
2018-05-08T10:34:35.680Z,28.66
2018-05-08T10:35:35.696Z,28.59
2018-05-08T10:36:35.732Z,28.58
2018-05-08T10:37:35.842Z,28.64
2018-05-08T10:38:35.710Z,28.54
2018-05-08T10:39:35.710Z,28.46
2018-05-08T10:40:35.727Z,28.33
2018-05-08T10:41:35.725Z,28.37
2018-05-08T10:42:35.743Z,28.25
2018-05-08T10:43:35.747Z,28.11
2018-05-08T10:44:35.744Z,27.92
2018-05-08T10:45:35.830Z,27.77
2018-05-08T10:46:35.751Z,27.67
2018-05-08T10:47:35.748Z,27.62
2018-05-08T10:48:35.896Z,27.50
2018-05-08T10:49:35.774Z,27.40
2018-05-08T10:50:35.768Z,27.24
2018-05-08T10:51:35.775Z,27.27
2018-05-08T10:52:35.815Z,27.14
2018-05-08T10:53:35.783Z,26.99
2018-05-08T10:54:35.804Z,26.94
2018-05-08T10:55:35.797Z,26.87
2018-05-08T10:56:37.015Z,26.80
2018-05-08T10:57:35.791Z,26.76
2018-05-08T10:58:35.790Z,26.63
2018-05-08T10:59:35.813Z,26.54
2018-05-08T11:00:35.867Z,26.52
2018-05-08T11:01:37.467Z,26.48
2018-05-08T11:02:35.805Z,26.43
2018-05-08T11:03:35.788Z,26.39
2018-05-08T11:04:35.807Z,26.36
2018-05-08T11:05:36.374Z,26.33
2018-05-08T11:06:35.797Z,26.21
2018-05-08T11:07:35.814Z,26.13
2018-05-08T11:08:35.805Z,26.05
2018-05-08T11:09:35.834Z,25.98
2018-05-08T11:10:35.810Z,25.97
2018-05-08T11:11:35.815Z,25.90
2018-05-08T11:12:35.848Z,25.85
2018-05-08T11:13:35.817Z,25.76
2018-05-08T11:14:35.845Z,25.75
2018-05-08T11:15:35.800Z,25.79
2018-05-08T11:16:35.810Z,25.77
2018-05-08T11:17:35.810Z,25.83
2018-05-08T11:18:35.804Z,25.73
2018-05-08T11:19:35.835Z,25.73
2018-05-08T11:20:35.802Z,25.73
2018-05-08T11:21:35.802Z,25.90
2018-05-08T11:22:35.807Z,25.98
2018-05-08T11:23:35.808Z,26.09
2018-05-08T11:24:35.835Z,26.12
2018-05-08T11:25:35.799Z,26.25
2018-05-08T11:26:36.121Z,26.33
2018-05-08T11:27:35.796Z,26.47
2018-05-08T11:28:35.804Z,26.43
2018-05-08T11:29:35.807Z,26.62
2018-05-08T11:30:35.796Z,26.69
2018-05-08T11:31:35.852Z,26.94
2018-05-08T11:32:35.808Z,27.29
2018-05-08T11:33:35.821Z,27.65
2018-05-08T11:34:35.815Z,27.94
2018-05-08T11:35:35.815Z,28.31
2018-05-08T11:36:35.953Z,28.68
2018-05-08T11:37:35.816Z,29.02
2018-05-08T11:38:35.816Z,29.43
2018-05-08T11:39:35.829Z,29.73
2018-05-08T11:40:35.829Z,30.08
2018-05-08T11:41:35.832Z,30.34
2018-05-08T11:42:35.841Z,30.73
2018-05-08T11:43:35.884Z,30.95
2018-05-08T11:44:35.930Z,31.16
2018-05-08T11:45:35.855Z,31.29
2018-05-08T11:46:35.856Z,31.50
2018-05-08T11:47:35.867Z,31.61
2018-05-08T11:48:35.921Z,31.76
2018-05-08T11:49:35.884Z,31.89
2018-05-08T11:50:35.891Z,32.04
2018-05-08T11:51:35.900Z,32.14
2018-05-08T11:52:35.900Z,32.23
2018-05-08T11:53:35.912Z,32.56
2018-05-08T11:54:35.922Z,32.66
2018-05-08T11:55:35.985Z,32.77
2018-05-08T11:56:35.938Z,32.87
2018-05-08T11:57:35.939Z,33.00
2018-05-08T11:58:36.128Z,33.03
2018-05-08T11:59:35.959Z,33.06
2018-05-08T12:00:35.976Z,33.15
2018-05-08T12:01:35.984Z,33.32
2018-05-08T12:02:36.050Z,33.32
2018-05-08T12:03:35.996Z,33.31
2018-05-08T12:04:36.024Z,33.19
2018-05-08T12:05:36.011Z,32.99
2018-05-08T12:06:36.018Z,32.81
2018-05-08T12:07:36.032Z,32.67
2018-05-08T12:08:36.037Z,32.51
2018-05-08T12:09:36.124Z,32.32
2018-05-08T12:10:36.048Z,32.07
2018-05-08T12:11:36.064Z,31.88
2018-05-08T12:12:36.067Z,31.61
2018-05-08T12:13:36.074Z,31.48
2018-05-08T12:14:36.140Z,31.19
2018-05-08T12:15:36.109Z,30.94
2018-05-08T12:16:36.098Z,30.73
2018-05-08T12:17:36.085Z,30.46
2018-05-08T12:18:36.173Z,30.26
2018-05-08T12:19:36.105Z,30.02
2018-05-08T12:20:36.117Z,29.76
2018-05-08T12:21:36.141Z,29.61
2018-05-08T12:22:36.111Z,29.42
2018-05-08T12:23:36.123Z,29.21
2018-05-08T12:24:36.150Z,28.93
2018-05-08T12:25:36.230Z,28.92
2018-05-08T12:26:36.175Z,28.76
2018-05-08T12:27:36.139Z,28.64
2018-05-08T12:28:36.180Z,28.52
2018-05-08T12:29:36.139Z,28.46
2018-05-08T12:30:36.294Z,28.33
2018-05-08T12:31:36.166Z,28.36
2018-05-08T12:32:36.160Z,28.24
2018-05-08T12:33:36.160Z,28.21
2018-05-08T12:34:36.160Z,28.06
2018-05-08T12:35:36.158Z,28.02
2018-05-08T12:36:36.465Z,27.96
2018-05-08T12:37:36.159Z,27.96
2018-05-08T12:38:36.172Z,27.85
2018-05-08T12:39:36.219Z,27.81
2018-05-08T12:40:36.187Z,27.67
2018-05-08T12:41:36.166Z,27.57
2018-05-08T12:42:36.180Z,27.59
2018-05-08T12:43:36.228Z,27.51
2018-05-08T12:44:36.183Z,27.46
2018-05-08T12:45:36.205Z,27.43
2018-05-08T12:46:36.183Z,27.29
2018-05-08T12:47:36.208Z,27.27
2018-05-08T12:48:36.189Z,27.17
2018-05-08T12:49:36.186Z,27.18
2018-05-08T12:50:36.204Z,27.14
2018-05-08T12:51:36.312Z,27.09
2018-05-08T12:52:36.181Z,27.04